createdAt,value
2019-03-15T00:00:14.379Z,22.33
2019-03-15T00:01:14.372Z,22.26
2019-03-15T00:02:14.355Z,22.26
2019-03-15T00:03:14.348Z,22.23
2019-03-15T00:04:14.504Z,22.23
2019-03-15T00:05:14.328Z,22.23
2019-03-15T00:06:14.316Z,22.28
2019-03-15T00:07:14.303Z,22.25
2019-03-15T00:08:14.292Z,22.26
2019-03-15T00:09:14.285Z,22.21
2019-03-15T00:10:14.441Z,22.18
2019-03-15T00:11:14.262Z,22.25
2019-03-15T00:12:14.255Z,22.21
2019-03-15T00:13:14.243Z,22.18
2019-03-15T00:14:14.228Z,22.21
2019-03-15T00:15:14.223Z,22.21
2019-03-15T00:16:14.322Z,22.26
2019-03-15T00:17:14.192Z,22.21
2019-03-15T00:18:14.185Z,22.28
2019-03-15T00:19:14.176Z,22.22
2019-03-15T00:20:14.163Z,22.23
2019-03-15T00:21:14.157Z,22.23
2019-03-15T00:22:14.253Z,22.28
2019-03-15T00:23:14.130Z,22.33
2019-03-15T00:24:14.139Z,22.33
2019-03-15T00:25:14.107Z,22.22
2019-03-15T00:26:14.098Z,22.28
2019-03-15T00:27:14.092Z,22.26
2019-03-15T00:28:14.262Z,22.36
2019-03-15T00:29:14.064Z,22.33
2019-03-15T00:30:14.068Z,22.36
2019-03-15T00:31:14.042Z,22.34
2019-03-15T00:32:14.040Z,22.36
2019-03-15T00:33:14.021Z,22.41
2019-03-15T00:34:14.110Z,22.40
2019-03-15T00:35:14.001Z,22.36
2019-03-15T00:36:13.998Z,22.38
2019-03-15T00:37:13.979Z,22.43
2019-03-15T00:38:13.967Z,22.40
2019-03-15T00:39:13.956Z,22.41
2019-03-15T00:40:14.176Z,22.34
2019-03-15T00:41:13.935Z,22.43
2019-03-15T00:42:13.925Z,22.41
2019-03-15T00:43:13.913Z,22.41
2019-03-15T00:44:13.904Z,22.41
2019-03-15T00:45:13.891Z,22.40
2019-03-15T00:46:14.043Z,22.44
2019-03-15T00:47:13.999Z,22.41
2019-03-15T00:48:13.858Z,22.43
2019-03-15T00:49:13.848Z,22.40
2019-03-15T00:50:13.835Z,22.36
2019-03-15T00:51:13.828Z,22.44
2019-03-15T00:52:14.049Z,22.46
2019-03-15T00:53:13.810Z,22.43
2019-03-15T00:54:13.795Z,22.40
2019-03-15T00:55:13.782Z,22.47
2019-03-15T00:56:13.782Z,22.43
2019-03-15T00:57:13.760Z,22.41
2019-03-15T00:58:13.850Z,22.38
2019-03-15T00:59:13.743Z,22.40
2019-03-15T01:00:13.729Z,22.44
2019-03-15T01:01:13.717Z,22.43
2019-03-15T01:02:13.707Z,22.37
2019-03-15T01:03:13.695Z,22.44
2019-03-15T01:04:13.882Z,22.41
2019-03-15T01:05:13.674Z,22.38
2019-03-15T01:06:13.663Z,22.38
2019-03-15T01:07:13.652Z,22.40
2019-03-15T01:08:13.694Z,22.43
2019-03-15T01:09:13.630Z,22.41
2019-03-15T01:10:13.920Z,22.41
2019-03-15T01:11:13.608Z,22.43
2019-03-15T01:12:13.618Z,22.38
2019-03-15T01:13:13.587Z,22.40
2019-03-15T01:14:13.576Z,22.38
2019-03-15T01:15:13.579Z,22.34
2019-03-15T01:16:13.652Z,22.37
2019-03-15T01:17:13.543Z,22.34
2019-03-15T01:18:13.532Z,22.38
2019-03-15T01:19:13.532Z,22.31
2019-03-15T01:20:13.512Z,22.40
2019-03-15T01:21:13.501Z,22.43
2019-03-15T01:22:13.664Z,22.43
2019-03-15T01:23:13.479Z,22.40
2019-03-15T01:24:13.471Z,22.37
2019-03-15T01:25:13.457Z,22.40
2019-03-15T01:26:13.447Z,22.40
2019-03-15T01:27:13.436Z,22.40
2019-03-15T01:28:13.526Z,22.40
2019-03-15T01:29:13.414Z,22.30
2019-03-15T01:30:13.403Z,22.38
2019-03-15T01:31:13.397Z,22.34
2019-03-15T01:32:13.381Z,22.34
2019-03-15T01:33:13.373Z,22.34
2019-03-15T01:34:13.457Z,22.33
2019-03-15T01:35:13.349Z,22.31
2019-03-15T01:36:13.341Z,22.31
2019-03-15T01:37:13.326Z,22.33
2019-03-15T01:38:13.318Z,22.34
2019-03-15T01:39:13.309Z,22.34
2019-03-15T01:40:13.391Z,22.34
2019-03-15T01:41:13.284Z,22.37
2019-03-15T01:42:13.273Z,22.40
2019-03-15T01:43:13.381Z,22.34
2019-03-15T01:44:13.252Z,22.36
2019-03-15T01:45:13.242Z,22.33
2019-03-15T01:46:13.347Z,22.43
2019-03-15T01:47:13.220Z,22.37
2019-03-15T01:48:13.209Z,22.37
2019-03-15T01:49:13.199Z,22.34
2019-03-15T01:50:13.188Z,22.40
2019-03-15T01:51:13.183Z,22.43
2019-03-15T01:52:13.475Z,22.37
2019-03-15T01:53:13.156Z,22.37
2019-03-15T01:54:13.614Z,22.38
2019-03-15T01:55:13.134Z,22.40
2019-03-15T01:56:13.124Z,22.33
2019-03-15T01:57:13.111Z,22.33
2019-03-15T01:58:13.200Z,22.34
2019-03-15T01:59:13.100Z,22.34
2019-03-15T02:00:13.470Z,22.34
2019-03-15T02:01:13.069Z,22.40
2019-03-15T02:02:13.377Z,22.34
2019-03-15T02:03:13.597Z,22.34
2019-03-15T02:04:13.252Z,22.36
2019-03-15T02:05:13.028Z,22.40
2019-03-15T02:06:13.014Z,22.34
2019-03-15T02:07:13.002Z,22.40
2019-03-15T02:08:12.991Z,22.38
2019-03-15T02:09:12.983Z,22.40
2019-03-15T02:10:13.137Z,22.38
2019-03-15T02:11:12.958Z,22.40
2019-03-15T02:12:12.949Z,22.31
2019-03-15T02:13:12.939Z,22.30
2019-03-15T02:14:12.927Z,22.34
2019-03-15T02:15:12.919Z,22.34
2019-03-15T02:16:13.004Z,22.37
2019-03-15T02:17:12.894Z,22.31
2019-03-15T02:18:12.885Z,22.37
2019-03-15T02:19:12.877Z,22.34
2019-03-15T02:20:12.861Z,22.30
2019-03-15T02:21:12.850Z,22.36
2019-03-15T02:22:13.038Z,22.36
2019-03-15T02:23:12.834Z,22.33
2019-03-15T02:24:13.483Z,22.31
2019-03-15T02:25:12.807Z,22.30
2019-03-15T02:26:12.797Z,22.25
2019-03-15T02:27:12.786Z,22.33
2019-03-15T02:28:12.946Z,22.30
2019-03-15T02:29:12.765Z,22.34
2019-03-15T02:30:12.753Z,22.33
2019-03-15T02:31:12.751Z,22.26
2019-03-15T02:32:13.166Z,22.36
2019-03-15T02:33:12.727Z,22.33
2019-03-15T02:34:12.828Z,22.26
2019-03-15T02:35:12.714Z,22.28
2019-03-15T02:36:13.938Z,22.31
2019-03-15T02:37:12.679Z,22.33
2019-03-15T02:38:12.676Z,22.33
2019-03-15T02:39:12.660Z,22.30
2019-03-15T02:40:13.185Z,22.28
2019-03-15T02:41:12.642Z,22.30
2019-03-15T02:42:12.624Z,22.28
2019-03-15T02:43:12.613Z,22.30
2019-03-15T02:44:12.884Z,22.22
2019-03-15T02:45:12.593Z,22.26
2019-03-15T02:46:12.684Z,22.28
2019-03-15T02:47:12.576Z,22.25
2019-03-15T02:48:13.576Z,22.23
2019-03-15T02:49:12.549Z,22.22
2019-03-15T02:50:12.545Z,22.28
2019-03-15T02:51:12.534Z,22.26
2019-03-15T02:52:12.662Z,22.26
2019-03-15T02:53:12.549Z,22.28
2019-03-15T02:54:12.496Z,22.30
2019-03-15T02:55:12.523Z,22.28
2019-03-15T02:56:12.474Z,22.23
2019-03-15T02:57:12.464Z,22.21
2019-03-15T02:58:12.664Z,22.21
2019-03-15T02:59:12.447Z,22.28
2019-03-15T03:00:13.882Z,22.30
2019-03-15T03:01:12.426Z,22.23
2019-03-15T03:02:13.488Z,22.26
2019-03-15T03:03:12.412Z,22.26
2019-03-15T03:04:14.053Z,22.23
2019-03-15T03:05:12.376Z,22.28
2019-03-15T03:06:12.369Z,22.28
2019-03-15T03:07:12.371Z,22.25
2019-03-15T03:08:13.426Z,22.28
2019-03-15T03:09:12.341Z,22.26
2019-03-15T03:10:12.422Z,22.26
2019-03-15T03:11:12.312Z,22.26
2019-03-15T03:12:12.308Z,22.28
2019-03-15T03:13:12.295Z,22.23
2019-03-15T03:14:12.285Z,22.23
2019-03-15T03:15:12.269Z,22.30
2019-03-15T03:16:12.585Z,22.25
2019-03-15T03:17:12.997Z,22.19
2019-03-15T03:18:12.236Z,22.26
2019-03-15T03:19:12.225Z,22.23
2019-03-15T03:20:12.270Z,22.30
2019-03-15T03:21:12.206Z,22.23
2019-03-15T03:22:12.359Z,22.26
2019-03-15T03:23:12.183Z,22.26
2019-03-15T03:24:12.171Z,22.22
2019-03-15T03:25:12.300Z,22.23
2019-03-15T03:26:13.424Z,22.28
2019-03-15T03:27:12.139Z,22.21
2019-03-15T03:28:12.230Z,22.25
2019-03-15T03:29:12.117Z,22.23
2019-03-15T03:30:13.265Z,22.18
2019-03-15T03:31:12.287Z,22.19
2019-03-15T03:32:13.575Z,22.21
2019-03-15T03:33:12.649Z,22.25
2019-03-15T03:34:12.788Z,22.23
2019-03-15T03:35:12.360Z,22.23
2019-03-15T03:36:12.039Z,22.19
2019-03-15T03:37:12.032Z,22.28
2019-03-15T03:38:12.425Z,22.22
2019-03-15T03:39:12.008Z,22.18
2019-03-15T03:40:12.105Z,22.21
2019-03-15T03:41:11.988Z,22.22
2019-03-15T03:42:11.977Z,22.26
2019-03-15T03:43:11.965Z,22.21
2019-03-15T03:44:11.962Z,22.22
2019-03-15T03:45:11.943Z,22.26
2019-03-15T03:46:12.032Z,22.23
2019-03-15T03:47:11.922Z,22.19
2019-03-15T03:48:11.911Z,22.23
2019-03-15T03:49:11.899Z,22.31
2019-03-15T03:50:11.893Z,22.26
2019-03-15T03:51:11.879Z,22.23
2019-03-15T03:52:11.965Z,22.28
2019-03-15T03:53:11.858Z,22.22
2019-03-15T03:54:11.845Z,22.19
2019-03-15T03:55:11.835Z,22.28
2019-03-15T03:56:11.823Z,22.23
2019-03-15T03:57:11.813Z,22.28
2019-03-15T03:58:11.971Z,22.26
2019-03-15T03:59:11.794Z,22.22
2019-03-15T04:00:11.786Z,22.23
2019-03-15T04:01:11.768Z,22.22
2019-03-15T04:02:11.768Z,22.19
2019-03-15T04:03:11.749Z,22.25
2019-03-15T04:04:11.838Z,22.26
2019-03-15T04:05:11.729Z,22.25
2019-03-15T04:06:11.716Z,22.26
2019-03-15T04:07:11.781Z,22.22
2019-03-15T04:08:11.698Z,22.25
2019-03-15T04:09:11.692Z,22.33
2019-03-15T04:10:11.845Z,22.28
2019-03-15T04:11:11.662Z,22.26
2019-03-15T04:12:11.660Z,22.25
2019-03-15T04:13:11.640Z,22.23
2019-03-15T04:14:11.628Z,22.26
2019-03-15T04:15:11.619Z,22.23
2019-03-15T04:16:11.858Z,22.25
2019-03-15T04:17:11.596Z,22.26
2019-03-15T04:18:11.584Z,22.33
2019-03-15T04:19:11.575Z,22.30
2019-03-15T04:20:11.569Z,22.25
2019-03-15T04:21:11.554Z,22.25
2019-03-15T04:22:11.642Z,22.28
2019-03-15T04:23:11.530Z,22.25
2019-03-15T04:24:11.565Z,22.23
2019-03-15T04:25:11.511Z,22.28
2019-03-15T04:26:11.499Z,22.30
2019-03-15T04:27:11.485Z,22.22
2019-03-15T04:28:11.658Z,22.23
2019-03-15T04:29:11.465Z,22.23
2019-03-15T04:30:11.456Z,22.22
2019-03-15T04:31:11.447Z,22.26
2019-03-15T04:32:11.439Z,22.28
2019-03-15T04:33:11.423Z,22.25
2019-03-15T04:34:11.627Z,22.25
2019-03-15T04:35:11.399Z,22.30
2019-03-15T04:36:11.389Z,22.31
2019-03-15T04:37:11.378Z,22.28
2019-03-15T04:38:11.367Z,22.25
2019-03-15T04:39:14.006Z,22.31
2019-03-15T04:40:11.454Z,22.23
2019-03-15T04:41:11.334Z,22.23
2019-03-15T04:42:11.330Z,22.23
2019-03-15T04:43:11.313Z,22.22
2019-03-15T04:44:11.301Z,22.28
2019-03-15T04:45:11.290Z,22.26
2019-03-15T04:46:11.464Z,22.30
2019-03-15T04:47:11.272Z,22.28
2019-03-15T04:48:11.258Z,22.23
2019-03-15T04:49:11.247Z,22.30
2019-03-15T04:50:11.246Z,22.23
2019-03-15T04:51:11.224Z,22.23
2019-03-15T04:52:11.318Z,22.25
2019-03-15T04:53:11.204Z,22.23
2019-03-15T04:54:11.193Z,22.33
2019-03-15T04:55:11.181Z,22.22
2019-03-15T04:56:11.175Z,22.28
2019-03-15T04:57:11.162Z,22.22
2019-03-15T04:58:11.455Z,22.23
2019-03-15T04:59:11.137Z,22.23
2019-03-15T05:00:11.129Z,22.22
2019-03-15T05:01:11.165Z,22.30
2019-03-15T05:02:11.108Z,22.22
2019-03-15T05:03:11.099Z,22.23
2019-03-15T05:04:11.186Z,22.30
2019-03-15T05:05:11.074Z,22.22
2019-03-15T05:06:11.062Z,22.31
2019-03-15T05:07:11.055Z,22.25
2019-03-15T05:08:11.040Z,22.33
2019-03-15T05:09:11.030Z,22.28
2019-03-15T05:10:11.117Z,22.28
2019-03-15T05:11:11.012Z,22.28
2019-03-15T05:12:10.998Z,22.22
2019-03-15T05:13:10.994Z,22.28
2019-03-15T05:14:10.984Z,22.30
2019-03-15T05:15:10.965Z,22.30
2019-03-15T05:16:11.198Z,22.30
2019-03-15T05:17:10.944Z,22.31
2019-03-15T05:18:10.939Z,22.31
2019-03-15T05:19:10.933Z,22.28
2019-03-15T05:20:10.914Z,22.33
2019-03-15T05:21:10.899Z,22.26
2019-03-15T05:22:10.987Z,22.30
2019-03-15T05:23:10.883Z,22.36
2019-03-15T05:24:10.871Z,22.36
2019-03-15T05:25:10.858Z,22.33
2019-03-15T05:26:10.846Z,22.37
2019-03-15T05:27:10.836Z,22.26
2019-03-15T05:28:10.934Z,22.34
2019-03-15T05:29:10.905Z,22.36
2019-03-15T05:30:10.803Z,22.40
2019-03-15T05:31:10.791Z,22.40
2019-03-15T05:32:10.783Z,22.36
2019-03-15T05:33:10.783Z,22.31
2019-03-15T05:34:10.883Z,22.41
2019-03-15T05:35:10.751Z,22.36
2019-03-15T05:36:10.738Z,22.43
2019-03-15T05:37:10.731Z,22.43
2019-03-15T05:38:10.721Z,22.38
2019-03-15T05:39:10.707Z,22.43
2019-03-15T05:40:10.878Z,22.40
2019-03-15T05:41:10.688Z,22.43
2019-03-15T05:42:10.675Z,22.37
2019-03-15T05:43:10.665Z,22.46
2019-03-15T05:44:10.657Z,22.38
2019-03-15T05:45:10.649Z,22.38
2019-03-15T05:46:11.589Z,22.37
2019-03-15T05:47:10.637Z,22.37
2019-03-15T05:48:10.609Z,22.37
2019-03-15T05:49:10.604Z,22.34
2019-03-15T05:50:10.600Z,22.44
2019-03-15T05:51:10.579Z,22.43
2019-03-15T05:52:10.693Z,22.41
2019-03-15T05:53:10.582Z,22.33
2019-03-15T05:54:10.546Z,22.34
2019-03-15T05:55:10.546Z,22.30
2019-03-15T05:56:10.523Z,22.30
2019-03-15T05:57:10.513Z,22.25
2019-03-15T05:58:10.687Z,22.30
2019-03-15T05:59:10.491Z,22.22
2019-03-15T06:00:10.499Z,22.33
2019-03-15T06:01:10.480Z,22.33
2019-03-15T06:02:10.462Z,22.31
2019-03-15T06:03:12.479Z,22.26
2019-03-15T06:04:10.535Z,22.28
2019-03-15T06:05:10.463Z,22.19
2019-03-15T06:06:10.421Z,22.25
2019-03-15T06:07:10.410Z,22.25
2019-03-15T06:08:10.395Z,22.28
2019-03-15T06:09:10.395Z,22.28
2019-03-15T06:10:10.550Z,22.22
2019-03-15T06:11:10.365Z,22.26
2019-03-15T06:12:10.352Z,22.30
2019-03-15T06:13:10.346Z,22.28
2019-03-15T06:14:10.327Z,22.22
2019-03-15T06:15:10.324Z,22.30
2019-03-15T06:16:10.618Z,22.21
2019-03-15T06:17:10.304Z,22.30
2019-03-15T06:18:10.283Z,22.33
2019-03-15T06:19:10.274Z,22.22
2019-03-15T06:20:10.271Z,22.22
2019-03-15T06:21:10.254Z,22.31
2019-03-15T06:22:10.350Z,22.23
2019-03-15T06:23:10.230Z,22.25
2019-03-15T06:24:10.219Z,22.28
2019-03-15T06:25:10.226Z,22.22
2019-03-15T06:26:10.203Z,22.23
2019-03-15T06:27:10.191Z,22.31
2019-03-15T06:28:10.359Z,22.31
2019-03-15T06:29:10.167Z,22.33
2019-03-15T06:30:10.158Z,22.30
2019-03-15T06:31:10.166Z,22.31
2019-03-15T06:32:10.344Z,22.33
2019-03-15T06:33:10.124Z,22.34
2019-03-15T06:34:10.284Z,22.36
2019-03-15T06:35:10.100Z,22.38
2019-03-15T06:36:11.081Z,22.38
2019-03-15T06:37:10.089Z,22.46
2019-03-15T06:38:10.067Z,22.38
2019-03-15T06:39:10.062Z,22.44
2019-03-15T06:40:13.258Z,22.40
2019-03-15T06:41:10.059Z,22.38
2019-03-15T06:42:10.027Z,22.38
2019-03-15T06:43:13.093Z,22.38
2019-03-15T06:44:10.008Z,22.37
2019-03-15T06:45:09.993Z,22.38
2019-03-15T06:46:10.145Z,22.38
2019-03-15T06:47:09.993Z,22.43
2019-03-15T06:48:09.965Z,22.36
2019-03-15T06:49:09.949Z,22.41
2019-03-15T06:50:09.939Z,22.38
2019-03-15T06:51:09.935Z,22.40
2019-03-15T06:52:10.188Z,22.46
2019-03-15T06:53:09.908Z,22.43
2019-03-15T06:54:11.916Z,22.41
2019-03-15T06:55:09.893Z,22.49
2019-03-15T06:56:09.878Z,22.49
2019-03-15T06:57:09.880Z,22.46
2019-03-15T06:58:09.957Z,22.53
2019-03-15T06:59:09.845Z,22.49
2019-03-15T07:00:09.831Z,22.44
2019-03-15T07:01:09.821Z,22.51
2019-03-15T07:02:09.827Z,22.52
2019-03-15T07:03:09.797Z,22.55
2019-03-15T07:04:09.893Z,22.52
2019-03-15T07:05:12.111Z,22.58
2019-03-15T07:06:09.763Z,22.47
2019-03-15T07:07:10.430Z,22.47
2019-03-15T07:08:09.744Z,22.47
2019-03-15T07:09:09.731Z,22.55
2019-03-15T07:10:09.907Z,22.47
2019-03-15T07:11:09.711Z,22.46
2019-03-15T07:12:10.149Z,22.62
2019-03-15T07:13:09.693Z,22.49
2019-03-15T07:14:09.678Z,22.55
2019-03-15T07:15:09.816Z,22.59
2019-03-15T07:16:09.763Z,22.62
2019-03-15T07:17:09.651Z,22.58
2019-03-15T07:18:09.641Z,22.63
2019-03-15T07:19:09.630Z,22.56
2019-03-15T07:20:09.615Z,22.70
2019-03-15T07:21:09.602Z,22.59
2019-03-15T07:22:09.717Z,22.67
2019-03-15T07:23:09.587Z,22.71
2019-03-15T07:24:09.569Z,22.70
2019-03-15T07:25:09.558Z,22.71
2019-03-15T07:26:09.548Z,22.70
2019-03-15T07:27:13.189Z,22.63
2019-03-15T07:28:09.717Z,22.65
2019-03-15T07:29:09.516Z,22.70
2019-03-15T07:30:09.504Z,22.65
2019-03-15T07:31:09.496Z,22.63
2019-03-15T07:32:09.483Z,22.70
2019-03-15T07:33:09.477Z,22.77
2019-03-15T07:34:09.562Z,22.80
2019-03-15T07:35:09.453Z,22.63
2019-03-15T07:36:09.440Z,22.63
2019-03-15T07:37:09.428Z,22.62
2019-03-15T07:38:09.416Z,22.67
2019-03-15T07:39:12.625Z,22.63
2019-03-15T07:40:09.670Z,22.62
2019-03-15T07:41:09.404Z,22.67
2019-03-15T07:42:09.374Z,22.68
2019-03-15T07:43:09.365Z,22.68
2019-03-15T07:44:09.352Z,22.67
2019-03-15T07:45:09.341Z,22.68
2019-03-15T07:46:09.553Z,22.68
2019-03-15T07:47:09.319Z,22.68
2019-03-15T07:48:21.911Z,22.62
2019-03-15T07:49:10.299Z,22.70
2019-03-15T07:50:09.292Z,22.68
2019-03-15T07:51:09.298Z,22.68
2019-03-15T07:52:09.366Z,22.67
2019-03-15T07:53:09.260Z,22.71
2019-03-15T07:54:09.244Z,22.77
2019-03-15T07:55:09.239Z,22.63
2019-03-15T07:56:09.223Z,22.74
2019-03-15T07:57:09.212Z,22.70
2019-03-15T07:58:09.301Z,22.68
2019-03-15T07:59:09.189Z,22.70
2019-03-15T08:00:09.177Z,22.68
2019-03-15T08:01:09.171Z,22.67
2019-03-15T08:02:09.157Z,22.62
2019-03-15T08:03:09.146Z,22.68
2019-03-15T08:04:16.738Z,22.67
2019-03-15T08:05:10.134Z,22.68
2019-03-15T08:06:09.113Z,22.71
2019-03-15T08:07:09.103Z,22.63
2019-03-15T08:08:09.099Z,22.70
2019-03-15T08:09:09.263Z,22.65
2019-03-15T08:10:09.174Z,22.67
2019-03-15T08:11:09.063Z,22.67
2019-03-15T08:12:09.049Z,22.67
2019-03-15T08:13:09.040Z,22.63
2019-03-15T08:14:09.030Z,22.68
2019-03-15T08:15:09.589Z,22.68
2019-03-15T08:16:09.114Z,22.78
2019-03-15T08:17:08.999Z,22.63
2019-03-15T08:18:08.988Z,22.70
2019-03-15T08:19:08.972Z,22.71
2019-03-15T08:20:08.970Z,22.68
2019-03-15T08:21:08.954Z,22.77
2019-03-15T08:22:09.052Z,22.74
2019-03-15T08:23:08.994Z,22.74
2019-03-15T08:24:08.920Z,22.77
2019-03-15T08:25:08.908Z,22.65
2019-03-15T08:26:08.897Z,22.74
2019-03-15T08:27:08.891Z,22.78
2019-03-15T08:28:09.061Z,22.73
2019-03-15T08:29:09.955Z,22.77
2019-03-15T08:30:08.856Z,22.71
2019-03-15T08:31:08.853Z,22.76
2019-03-15T08:32:08.834Z,22.71
2019-03-15T08:33:10.586Z,22.71
2019-03-15T08:34:08.918Z,22.74
2019-03-15T08:35:08.801Z,22.74
2019-03-15T08:36:08.790Z,22.68
2019-03-15T08:37:08.782Z,22.68
2019-03-15T08:38:08.771Z,22.74
2019-03-15T08:39:08.759Z,22.76
2019-03-15T08:40:08.929Z,22.78
2019-03-15T08:41:08.751Z,22.73
2019-03-15T08:42:08.733Z,22.77
2019-03-15T08:43:08.724Z,22.80
2019-03-15T08:44:08.704Z,22.77
2019-03-15T08:45:08.693Z,22.78
2019-03-15T08:46:08.790Z,22.73
2019-03-15T08:47:08.670Z,22.76
2019-03-15T08:48:08.659Z,22.71
2019-03-15T08:49:08.648Z,22.77
2019-03-15T08:50:08.635Z,22.73
2019-03-15T08:51:10.561Z,22.76
2019-03-15T08:52:08.713Z,22.74
2019-03-15T08:53:08.605Z,22.76
2019-03-15T08:54:08.597Z,22.76
2019-03-15T08:55:08.584Z,22.73
2019-03-15T08:56:08.573Z,22.76
2019-03-15T08:57:08.564Z,22.80
2019-03-15T08:58:13.858Z,22.80
2019-03-15T08:59:09.539Z,22.78
2019-03-15T09:00:08.530Z,22.73
2019-03-15T09:01:10.952Z,22.77
2019-03-15T09:02:08.507Z,22.68
2019-03-15T09:03:08.509Z,22.70
2019-03-15T09:04:08.589Z,22.77
2019-03-15T09:05:08.480Z,22.78
2019-03-15T09:06:08.469Z,22.74
2019-03-15T09:07:08.452Z,22.76
2019-03-15T09:08:08.441Z,22.71
2019-03-15T09:09:08.466Z,22.76
2019-03-15T09:10:21.962Z,22.70
2019-03-15T09:11:09.410Z,22.77
2019-03-15T09:12:08.402Z,22.78
2019-03-15T09:13:08.389Z,22.74
2019-03-15T09:14:08.377Z,22.77
2019-03-15T09:15:08.367Z,22.71
2019-03-15T09:16:08.533Z,22.74
2019-03-15T09:17:08.348Z,22.74
2019-03-15T09:18:08.335Z,22.73
2019-03-15T09:19:08.325Z,22.78
2019-03-15T09:20:08.315Z,22.73
2019-03-15T09:21:08.348Z,22.77
2019-03-15T09:22:08.405Z,22.70
2019-03-15T09:23:08.282Z,22.74
2019-03-15T09:24:08.283Z,22.74
2019-03-15T09:25:18.489Z,22.77
2019-03-15T09:26:10.553Z,22.77
2019-03-15T09:27:10.548Z,22.74
2019-03-15T09:28:08.330Z,22.78
2019-03-15T09:29:08.214Z,22.74
2019-03-15T09:30:18.065Z,22.78
2019-03-15T09:31:09.194Z,22.77
2019-03-15T09:32:09.230Z,22.76
2019-03-15T09:33:08.184Z,22.74
2019-03-15T09:34:08.433Z,22.74
2019-03-15T09:35:08.206Z,22.80
2019-03-15T09:36:08.139Z,22.78
2019-03-15T09:37:08.131Z,22.77
2019-03-15T09:38:10.383Z,22.76
2019-03-15T09:39:08.114Z,22.78
2019-03-15T09:40:08.255Z,22.76
2019-03-15T09:41:08.086Z,22.80
2019-03-15T09:42:08.075Z,22.74
2019-03-15T09:43:08.066Z,22.80
2019-03-15T09:44:08.052Z,22.83
2019-03-15T09:45:08.043Z,22.73
2019-03-15T09:46:08.202Z,22.83
2019-03-15T09:47:08.019Z,22.74
2019-03-15T09:48:08.008Z,22.84
2019-03-15T09:49:07.999Z,22.80
2019-03-15T09:50:21.489Z,22.86
2019-03-15T09:51:09.003Z,22.71
2019-03-15T09:52:08.083Z,22.89
2019-03-15T09:53:07.983Z,22.86
2019-03-15T09:54:07.943Z,22.84
2019-03-15T09:55:07.937Z,22.76
2019-03-15T09:56:07.921Z,22.91
2019-03-15T09:57:07.912Z,22.88
2019-03-15T09:58:08.400Z,22.80
2019-03-15T09:59:07.888Z,22.88
2019-03-15T10:00:07.878Z,22.77
2019-03-15T10:01:08.236Z,22.83
2019-03-15T10:02:08.104Z,22.86
2019-03-15T10:03:21.164Z,22.83
2019-03-15T10:04:08.938Z,22.88
2019-03-15T10:05:11.398Z,22.78
2019-03-15T10:06:14.936Z,22.83
2019-03-15T10:07:08.815Z,22.78
2019-03-15T10:08:07.791Z,22.81
2019-03-15T10:09:07.789Z,22.77
2019-03-15T10:10:13.559Z,22.73
2019-03-15T10:11:08.826Z,22.81
2019-03-15T10:12:07.762Z,22.89
2019-03-15T10:13:07.744Z,22.76
2019-03-15T10:14:07.730Z,22.83
2019-03-15T10:15:08.177Z,22.80
2019-03-15T10:16:07.913Z,22.80
2019-03-15T10:17:07.698Z,22.81
2019-03-15T10:18:07.701Z,22.86
2019-03-15T10:19:07.678Z,22.89
2019-03-15T10:20:07.691Z,22.84
2019-03-15T10:21:09.352Z,22.83
2019-03-15T10:22:07.860Z,22.86
2019-03-15T10:23:07.633Z,22.74
2019-03-15T10:24:07.623Z,22.83
2019-03-15T10:25:07.613Z,22.89
2019-03-15T10:26:07.606Z,22.83
2019-03-15T10:27:07.590Z,22.88
2019-03-15T10:28:07.690Z,22.89
2019-03-15T10:29:15.432Z,22.78
2019-03-15T10:30:08.560Z,22.91
2019-03-15T10:31:07.549Z,22.86
2019-03-15T10:32:07.538Z,22.83
2019-03-15T10:33:07.529Z,22.86
2019-03-15T10:34:07.621Z,22.89
2019-03-15T10:35:07.506Z,22.88
2019-03-15T10:36:07.498Z,22.95
2019-03-15T10:37:07.488Z,22.86
2019-03-15T10:38:07.476Z,22.88
2019-03-15T10:39:07.464Z,22.93
2019-03-15T10:40:07.646Z,22.88
2019-03-15T10:41:07.451Z,22.89
2019-03-15T10:42:07.434Z,22.92
2019-03-15T10:43:07.420Z,22.93
2019-03-15T10:44:07.420Z,22.95
2019-03-15T10:45:07.397Z,22.98
2019-03-15T10:46:07.483Z,22.95
2019-03-15T10:47:07.391Z,22.98
2019-03-15T10:48:08.234Z,22.99
2019-03-15T10:49:07.358Z,23.01
2019-03-15T10:50:07.344Z,23.01
2019-03-15T10:51:07.337Z,22.96
2019-03-15T10:52:07.428Z,23.01
2019-03-15T10:53:07.326Z,23.07
2019-03-15T10:54:07.313Z,23.04
2019-03-15T10:55:07.293Z,22.98
2019-03-15T10:56:07.281Z,23.01
2019-03-15T10:57:07.276Z,23.06
2019-03-15T10:58:07.437Z,23.01
2019-03-15T10:59:07.258Z,22.96
2019-03-15T11:00:07.242Z,22.98
2019-03-15T11:01:07.228Z,23.01
2019-03-15T11:02:07.216Z,23.01
2019-03-15T11:03:07.208Z,23.01
2019-03-15T11:04:07.308Z,22.98
2019-03-15T11:05:07.198Z,22.99
2019-03-15T11:06:07.177Z,23.06
2019-03-15T11:07:07.163Z,22.98
2019-03-15T11:08:07.163Z,23.04
2019-03-15T11:09:07.144Z,22.98
2019-03-15T11:10:07.234Z,23.01
2019-03-15T11:11:07.125Z,23.01
2019-03-15T11:12:07.111Z,22.99
2019-03-15T11:13:07.121Z,23.01
2019-03-15T11:14:07.090Z,22.99
2019-03-15T11:15:07.079Z,22.99
2019-03-15T11:16:07.174Z,23.01
2019-03-15T11:17:07.062Z,22.99
2019-03-15T11:18:07.046Z,22.99
2019-03-15T11:19:07.035Z,23.01
2019-03-15T11:20:07.024Z,23.01
2019-03-15T11:21:07.015Z,22.95
2019-03-15T11:22:07.118Z,23.01
2019-03-15T11:23:07.015Z,23.02
2019-03-15T11:24:06.987Z,23.01
2019-03-15T11:25:06.975Z,22.96
2019-03-15T11:26:13.707Z,22.99
2019-03-15T11:27:08.069Z,23.06
2019-03-15T11:28:06.949Z,23.04
2019-03-15T11:29:06.935Z,23.01
2019-03-15T11:30:06.918Z,23.06
2019-03-15T11:31:06.925Z,23.06
2019-03-15T11:32:06.905Z,23.07
2019-03-15T11:33:07.074Z,23.01
2019-03-15T11:34:06.880Z,23.01
2019-03-15T11:35:06.873Z,23.06
2019-03-15T11:36:06.865Z,23.02
2019-03-15T11:37:06.853Z,23.06
2019-03-15T11:38:06.833Z,23.02
2019-03-15T11:39:07.145Z,23.04
2019-03-15T11:40:06.817Z,22.99
2019-03-15T11:41:06.801Z,23.04
2019-03-15T11:42:06.791Z,23.04
2019-03-15T11:43:06.783Z,23.06
2019-03-15T11:44:06.773Z,23.04
2019-03-15T11:45:06.853Z,23.07
2019-03-15T11:46:06.751Z,23.07
2019-03-15T11:47:06.775Z,23.06
2019-03-15T11:48:09.033Z,23.06
2019-03-15T11:49:06.717Z,23.06
2019-03-15T11:50:06.708Z,22.99
2019-03-15T11:51:06.859Z,23.06
2019-03-15T11:52:06.685Z,23.02
2019-03-15T11:53:06.678Z,23.08
2019-03-15T11:54:06.664Z,23.01
2019-03-15T11:55:06.653Z,23.06
2019-03-15T11:56:06.649Z,23.04
2019-03-15T11:57:06.734Z,23.06
2019-03-15T11:58:06.621Z,23.06
2019-03-15T11:59:06.616Z,23.07
2019-03-15T12:00:06.604Z,23.04
2019-03-15T12:01:06.593Z,23.01
2019-03-15T12:02:06.581Z,23.10
2019-03-15T12:03:06.665Z,23.02
2019-03-15T12:04:06.564Z,23.07
2019-03-15T12:05:06.672Z,23.10
2019-03-15T12:06:06.537Z,23.01
2019-03-15T12:07:06.529Z,23.02
2019-03-15T12:08:06.514Z,23.13
2019-03-15T12:09:06.655Z,23.01
2019-03-15T12:10:06.495Z,23.01
2019-03-15T12:11:06.482Z,23.06
2019-03-15T12:12:06.472Z,23.18
2019-03-15T12:13:06.461Z,23.16
2019-03-15T12:14:06.454Z,23.18
2019-03-15T12:15:06.535Z,23.11
2019-03-15T12:16:07.096Z,23.16
2019-03-15T12:17:06.417Z,23.01
2019-03-15T12:18:08.388Z,23.17
2019-03-15T12:19:06.399Z,23.14
2019-03-15T12:20:06.387Z,23.16
2019-03-15T12:21:06.878Z,23.10
2019-03-15T12:22:06.839Z,23.10
2019-03-15T12:23:06.354Z,23.16
2019-03-15T12:24:06.345Z,23.13
2019-03-15T12:25:06.362Z,23.06
2019-03-15T12:26:06.326Z,23.16
2019-03-15T12:27:06.490Z,23.10
2019-03-15T12:28:06.304Z,23.18
2019-03-15T12:29:06.291Z,23.23
2019-03-15T12:30:06.301Z,23.11
2019-03-15T12:31:06.282Z,23.14
2019-03-15T12:32:06.261Z,23.18
2019-03-15T12:33:06.351Z,23.26
2019-03-15T12:34:06.236Z,23.14
2019-03-15T12:35:06.236Z,23.13
2019-03-15T12:36:06.224Z,23.10
2019-03-15T12:37:06.212Z,23.14
2019-03-15T12:38:06.195Z,23.29
2019-03-15T12:39:06.282Z,23.26
2019-03-15T12:40:06.176Z,23.18
2019-03-15T12:41:06.184Z,23.17
2019-03-15T12:42:06.159Z,23.17
2019-03-15T12:43:06.146Z,23.16
2019-03-15T12:44:06.131Z,23.20
2019-03-15T12:45:06.399Z,23.26
2019-03-15T12:46:06.117Z,23.20
2019-03-15T12:47:06.439Z,23.33
2019-03-15T12:48:06.087Z,23.21
2019-03-15T12:49:06.083Z,23.18
2019-03-15T12:50:06.065Z,23.25
2019-03-15T12:51:06.185Z,23.23
2019-03-15T12:52:06.061Z,23.20